Last 24 Hours

Pinyon

10 Minute Data | America/Los_Angeles
as of 1/30/23 9:48 AM PST
Date & Time Temp (°F) Dew Pt (°F) RH (%) Wind Spd (mph) Wind Dir (°) Wind Gust (mph) Wind Gst Dir (°) Daily Max Temp (°F) Daily Min Temp (°F)
1/30/23 - 0940 35.2 30.3 82 3.6 NE | 49 6.8 ENE | 58 35.2 31.6
1/30/23 - 0930 34.9 30.5 84 3.8 NE | 49 7.7 ENE | 65 35.1 31.6
1/30/23 - 0920 34.7 30.9 86 4.0 ENE | 64 8.0 ENE | 73 35.0 31.6
1/30/23 - 0910 34.4 30.8 87 3.0 NE | 39 6.9 NE | 48 34.7 31.6
1/30/23 - 0900 34.0 29.9 85 3.2 NNE | 15 6.4 NE | 42 34.3 31.6
1/30/23 - 0850 34.3 30.3 85 3.0 NNE | 21 5.9 NE | 50 34.3 31.6
1/30/23 - 0840 33.8 30.4 87 2.6 NNE | 16 4.7 NNE | 13 34.1 31.6
1/30/23 - 0830 33.4 30.5 89 1.9 NW | 315 3.2 NNW | 329 34.1 31.6
1/30/23 - 0820 32.9 30.3 90 2.2 NW | 313 3.9 NNW | 340 34.1 31.6
1/30/23 - 0810 32.6 30.0 90 3.7 NW | 307 5.6 WNW | 291 34.1 31.6
1/30/23 - 0800 32.7 29.7 88 4.0 WNW | 303 5.3 WNW | 292 34.1 31.6
1/30/23 - 0750 33.1 29.7 87 2.5 WNW | 295 4.0 WNW | 298 34.1 31.6
1/30/23 - 0740 33.2 29.6 86 1.9 WNW | 289 3.6 W | 261 34.1 31.6
1/30/23 - 0730 33.2 29.6 86 3.0 WNW | 299 4.5 NNW | 332 34.1 31.6
1/30/23 - 0720 33.0 29.7 87 3.9 NW | 318 6.1 NW | 319 34.1 31.6
1/30/23 - 0710 32.9 29.6 87 3.8 NW | 314 5.6 NW | 319 34.1 31.6
1/30/23 - 0700 32.8 29.3 87 5.6 W | 278 8.5 W | 280 34.1 31.6
1/30/23 - 0650 32.9 29.2 86 6.7 W | 279 8.6 W | 281 34.1 31.6
1/30/23 - 0640 32.6 29.3 88 6.0 WNW | 282 8.2 WNW | 290 34.1 31.6
1/30/23 - 0630 32.7 29.0 86 6.1 W | 270 8.6 W | 271 34.1 31.6
1/30/23 - 0620 33.3 28.7 83 8.3 W | 277 13.3 WNW | 285 34.1 31.6
1/30/23 - 0610 33.8 28.5 81 8.1 WNW | 287 12.4 WNW | 292 34.1 31.6
1/30/23 - 0600 33.9 28.5 80 8.1 WNW | 287 13.3 WNW | 302 34.1 31.6
1/30/23 - 0550 33.5 28.8 83 8.1 WNW | 293 11.2 WNW | 292 33.7 31.6
1/30/23 - 0540 32.9 29.0 85 7.6 WNW | 289 10.7 WNW | 290 33.1 31.6
1/30/23 - 0530 32.7 29.0 86 8.2 W | 274 10.4 W | 277 33.1 31.6
1/30/23 - 0520 32.6 28.8 86 8.6 W | 266 11.2 W | 269 33.1 31.6
1/30/23 - 0510 32.5 28.8 86 9.3 W | 265 12.2 WSW | 252 33.1 31.6
1/30/23 - 0500 32.8 28.6 84 8.8 W | 264 11.5 W | 270 33.1 31.6
1/30/23 - 0450 32.9 28.6 84 8.8 W | 260 12.1 W | 265 33.1 31.6
1/30/23 - 0440 32.8 28.6 84 9.2 W | 264 12.1 W | 269 33.1 31.6
1/30/23 - 0430 32.8 28.6 84 10.8 W | 259 14.2 W | 266 33.1 31.6
1/30/23 - 0420 32.6 28.7 85 11.7 W | 265 15.0 W | 269 33.1 31.6
1/30/23 - 0410 32.6 29.0 86 11.8 W | 268 15.9 W | 276 33.1 31.6
1/30/23 - 0400 32.5 29.5 89 11.7 W | 280 16.4 WNW | 287 33.1 31.6
1/30/23 - 0350 32.4 29.8 90 9.8 WNW | 283 13.7 WNW | 287 33.1 31.6
1/30/23 - 0340 32.2 29.8 91 10.1 WNW | 285 14.9 WNW | 283 33.1 31.6
1/30/23 - 0330 31.9 29.7 91 10.6 WNW | 284 15.5 WNW | 289 33.1 31.6
1/30/23 - 0320 31.8 29.6 92 10.3 W | 272 14.3 W | 277 33.1 31.6
1/30/23 - 0310 31.7 29.5 92 9.8 W | 264 13.4 W | 262 33.1 31.6
1/30/23 - 0300 31.8 29.6 92 10.7 W | 266 15.6 WSW | 256 33.1 31.6
1/30/23 - 0250 31.9 29.8 92 11.4 W | 266 16.1 W | 260 33.1 31.8
1/30/23 - 0240 32.1 29.8 91 10.6 WSW | 258 14.6 WSW | 254 33.1 31.9
1/30/23 - 0230 32.1 29.8 91 9.6 WSW | 251 14.2 WSW | 252 33.1 31.9
1/30/23 - 0220 32.2 29.8 91 10.2 WSW | 252 15.6 WSW | 258 33.1 31.9
1/30/23 - 0210 32.0 29.8 91 10.1 WSW | 254 13.5 WSW | 238 33.1 31.9
1/30/23 - 0200 32.0 29.7 91 10.0 WSW | 251 13.6 WSW | 258 33.1 31.9
1/30/23 - 0150 32.1 29.7 91 10.7 WSW | 247 15.7 SW | 234 33.1 32.0
1/30/23 - 0140 32.2 30.0 91 9.1 WSW | 243 12.6 WSW | 239 33.1 32.1
1/30/23 - 0130 32.3 30.3 92 10.9 SW | 234 15.0 SW | 232 33.1 32.2
1/30/23 - 0120 32.4 30.8 94 12.6 WSW | 239 18.0 WSW | 244 33.1 32.2
1/30/23 - 0110 32.5 31.1 95 11.5 WSW | 238 16.2 WSW | 237 33.1 32.2
1/30/23 - 0100 32.5 31.3 95 11.4 SW | 234 17.0 SW | 228 33.1 32.2
1/30/23 - 0050 32.3 31.1 95 11.0 WSW | 238 14.6 SSW | 210 33.1 32.2
1/30/23 - 0040 32.2 30.9 95 11.5 WSW | 241 16.9 WSW | 246 33.1 32.2
1/30/23 - 0030 32.3 30.8 94 15.0 WSW | 237 19.8 WSW | 248 33.1 32.2
1/30/23 - 0020 32.8 31.1 93 13.8 SW | 227 19.1 SW | 221 33.1 32.5
1/30/23 - 0010 33.1 31.3 93 14.0 SW | 229 18.6 SW | 234 33.1 33.0
1/30/23 - 0000 33.1 31.4 93 13.9 SW | 230 19.5 SW | 228 40.6 32.9
1/29/23 - 2350 32.9 31.1 93 12.2 SW | 230 17.2 WSW | 239 40.6 32.9
1/29/23 - 2340 33.0 31.0 92 11.0 SW | 235 15.3 SW | 228 40.6 32.9
1/29/23 - 2330 33.4 30.9 90 12.3 WSW | 239 16.7 WSW | 244 40.6 33.1
1/29/23 - 2320 33.6 30.8 90 11.5 WSW | 241 16.9 WSW | 245 40.6 33.1
1/29/23 - 2310 33.7 30.9 89 11.1 SW | 230 18.0 SW | 220 40.6 33.1
1/29/23 - 2300 33.6 31.2 91 12.8 SW | 222 18.8 SW | 215 40.6 33.1
1/29/23 - 2250 33.5 31.6 92 16.4 SW | 229 22.6 SW | 234 40.6 33.1
1/29/23 - 2240 33.4 31.8 94 15.2 SW | 229 24.4 SW | 235 40.6 33.1
1/29/23 - 2230 33.3 31.6 94 12.2 SW | 223 17.3 SW | 231 40.6 33.1
1/29/23 - 2220 33.4 31.6 93 13.0 SW | 226 17.8 SW | 220 40.6 33.1
1/29/23 - 2210 33.5 31.7 93 11.4 SW | 227 16.4 SW | 231 40.6 33.1
1/29/23 - 2200 33.4 31.7 93 11.1 SW | 228 16.4 SW | 221 40.6 33.1
1/29/23 - 2150 33.3 31.6 94 10.0 SW | 221 13.3 SW | 222 40.6 33.1
1/29/23 - 2140 33.2 31.5 93 11.2 SW | 222 16.5 SW | 227 40.6 33.1
1/29/23 - 2130 33.2 31.3 93 13.1 SW | 224 18.5 SW | 225 40.6 33.1
1/29/23 - 2120 33.2 31.1 92 13.1 SW | 230 17.6 SW | 222 40.6 33.1
1/29/23 - 2110 33.2 31.1 92 13.3 SW | 224 18.8 SSW | 205 40.6 33.2
1/29/23 - 2100 33.3 31.1 91 12.6 SW | 228 18.3 SW | 226 40.6 33.2
1/29/23 - 2050 33.2 31.0 92 14.3 SW | 229 20.2 SW | 229 40.6 33.2
1/29/23 - 2040 33.2 30.9 91 15.0 SW | 230 21.0 SW | 227 40.6 33.2
1/29/23 - 2030 33.4 30.9 90 15.2 SW | 232 20.4 SW | 229 40.6 33.4
1/29/23 - 2020 33.5 31.0 90 11.9 WSW | 243 17.8 WSW | 250 40.6 33.4
1/29/23 - 2010 33.5 31.1 91 10.7 WSW | 246 17.0 WSW | 248 40.6 33.4
1/29/23 - 2000 33.4 31.1 91 11.0 WSW | 249 17.0 WSW | 244 40.6 33.4
1/29/23 - 1950 33.4 31.1 91 12.7 WSW | 241 20.1 SW | 230 40.6 33.4
1/29/23 - 1940 33.5 31.5 92 15.7 WSW | 237 25.0 SW | 226 40.6 33.5
1/29/23 - 1930 34.0 32.2 93 17.9 WSW | 237 28.3 WSW | 249 40.6 33.7
1/29/23 - 1920 34.3 32.6 94 17.4 SW | 235 26.2 WSW | 240 40.6 34.3
1/29/23 - 1910 34.4 32.7 94 16.0 WSW | 237 23.8 WSW | 241 40.6 34.3
1/29/23 - 1900 34.5 32.7 93 16.1 WSW | 237 21.9 SW | 232 40.6 34.4
1/29/23 - 1850 34.6 32.8 93 14.4 WSW | 238 21.0 WSW | 248 40.6 34.5
1/29/23 - 1840 34.9 32.9 92 16.4 WSW | 239 25.6 WSW | 238 40.6 34.8
1/29/23 - 1830 34.8 33.1 93 17.0 SW | 230 24.6 SW | 224 40.6 34.8
1/29/23 - 1820 34.8 33.2 94 15.9 WSW | 237 24.3 WSW | 246 40.6 34.8
1/29/23 - 1810 35.0 33.2 93 18.3 WSW | 242 26.5 WSW | 241 40.6 34.8
1/29/23 - 1800 35.1 33.3 93 18.1 WSW | 237 28.9 WSW | 238 40.6 34.8
1/29/23 - 1750 35.5 33.5 92 18.2 WSW | 237 26.4 WSW | 240 40.6 34.8
1/29/23 - 1740 35.7 33.5 92 14.8 WSW | 239 22.1 WSW | 244 40.6 34.8
1/29/23 - 1730 35.8 33.4 91 13.4 WSW | 240 19.6 SW | 231 40.6 34.8
1/29/23 - 1720 35.8 33.4 91 13.8 WSW | 241 21.1 W | 259 40.6 34.8
1/29/23 - 1710 35.9 33.6 91 15.8 WSW | 245 22.2 WSW | 250 40.6 34.8
1/29/23 - 1700 36.0 33.8 92 17.9 WSW | 244 25.5 WSW | 238 40.6 34.8
1/29/23 - 1650 36.1 33.8 91 19.1 WSW | 239 29.1 SW | 236 40.6 34.8
1/29/23 - 1640 36.1 33.8 91 19.1 WSW | 237 27.4 WSW | 250 40.6 34.8
1/29/23 - 1630 36.3 34.0 91 19.9 WSW | 241 29.0 WSW | 239 40.6 34.8
1/29/23 - 1620 36.5 34.2 91 17.2 WSW | 244 26.5 WSW | 239 40.6 34.8
1/29/23 - 1610 36.4 34.3 92 19.0 WSW | 245 28.9 WSW | 257 40.6 34.8
1/29/23 - 1600 36.5 34.8 93 21.2 WSW | 245 33.3 WSW | 241 40.6 34.8
1/29/23 - 1550 36.7 35.0 93 20.7 WSW | 242 30.3 SW | 236 40.6 34.8
1/29/23 - 1540 37.3 35.6 93 21.2 WSW | 242 31.8 SW | 234 40.6 34.8
1/29/23 - 1530 37.1 35.6 94 19.9 WSW | 242 29.4 SW | 232 40.6 34.8
1/29/23 - 1520 37.1 35.8 95 20.0 WSW | 245 29.6 SW | 228 40.6 34.8
1/29/23 - 1510 37.0 35.6 94 19.8 WSW | 247 27.9 WSW | 246 40.6 34.8
1/29/23 - 1500 37.0 35.3 93 20.7 WSW | 242 31.2 WSW | 238 40.6 34.8
1/29/23 - 1450 37.2 35.2 92 21.3 WSW | 248 32.3 WSW | 253 40.6 34.8
1/29/23 - 1440 37.4 35.1 91 24.0 WSW | 250 35.1 WSW | 246 40.6 34.8
1/29/23 - 1430 37.5 35.0 91 27.8 WSW | 249 37.2 WSW | 246 40.6 34.8
1/29/23 - 1420 37.5 35.0 90 30.0 WSW | 250 38.4 WSW | 254 40.6 34.8
1/29/23 - 1410 37.7 35.0 90 32.9 WSW | 249 42.7 WSW | 252 40.6 34.8
1/29/23 - 1400 38.0 35.0 89 34.4 WSW | 250 45.9 WSW | 247 40.6 34.8
1/29/23 - 1350 38.2 34.9 88 34.0 WSW | 249 44.4 WSW | 256 40.6 34.8
1/29/23 - 1340 38.3 34.8 87 33.6 WSW | 245 43.3 WSW | 242 40.6 34.8
1/29/23 - 1330 38.3 35.0 88 35.5 WSW | 243 47.2 SW | 236 40.6 34.8
1/29/23 - 1320 38.1 35.1 89 34.3 WSW | 240 47.4 WSW | 245 40.6 34.8
1/29/23 - 1310 38.4 34.5 86 37.9 SW | 236 51.6 WSW | 247 40.6 34.8
1/29/23 - 1300 39.0 34.7 84 36.7 WSW | 237 47.9 WSW | 252 40.6 34.8
1/29/23 - 1250 38.5 34.4 85 35.9 WSW | 237 45.4 WSW | 243 40.6 34.8
1/29/23 - 1240 38.1 34.6 87 37.6 SW | 234 49.7 SW | 229 40.6 34.8
1/29/23 - 1230 37.6 34.5 88 37.1 SW | 231 48.2 SW | 223 40.6 34.8
1/29/23 - 1220 37.6 34.3 88 37.4 SW | 232 51.1 SW | 231 40.6 34.8
1/29/23 - 1210 37.5 34.3 88 34.6 SW | 234 46.8 SW | 229 40.6 34.8
1/29/23 - 1200 37.4 34.2 88 33.9 SW | 235 44.0 SW | 236 40.6 34.8
1/29/23 - 1150 37.3 34.3 89 32.5 SW | 235 42.4 SW | 231 40.6 34.8
1/29/23 - 1140 37.6 33.7 86 33.1 SW | 232 42.9 SW | 230 40.6 34.8
1/29/23 - 1130 38.3 33.1 81 35.5 SW | 233 45.3 SW | 226 40.6 34.8
1/29/23 - 1120 38.5 33.3 82 36.5 SW | 228 48.3 SW | 225 40.6 34.8
1/29/23 - 1110 38.1 34.0 85 38.0 SW | 229 46.5 SW | 236 40.6 34.8
1/29/23 - 1100 37.7 33.8 86 37.6 SW | 234 51.2 SW | 234 40.6 34.8
1/29/23 - 1050 38.4 33.2 82 36.0 SW | 231 45.5 SW | 236 40.6 34.8
1/29/23 - 1040 38.7 33.0 80 38.2 SW | 232 50.1 SW | 229 40.6 34.8
1/29/23 - 1030 38.7 32.9 79 37.5 SW | 230 48.0 SW | 236 40.6 34.8
1/29/23 - 1020 38.5 32.6 79 36.7 SW | 229 48.2 SW | 225 40.6 34.8
1/29/23 - 1010 39.0 32.6 78 34.2 SW | 228 48.6 SW | 230 40.6 34.8
1/29/23 - 1000 39.3 31.9 74 33.7 SW | 230 48.4 SW | 230 40.6 34.8
1/29/23 - 0950 40.1 30.6 69 34.2 SW | 233 47.1 SW | 225 40.6 34.8
1/29/23 - 0940 40.1 30.2 68 33.4 SW | 233 46.8 SW | 232 40.6 34.8
Max 40.1 35.8 95 38.2 - 51.6 - 40.6 34.8
Avg 34.7 31.7 89 16.6 - 23.3 - - -
Min 31.7 28.5 68 1.9 - 3.2 - 33.1 31.6